createdAt,value
2018-01-15T00:01:22.580Z,30.13
2018-01-15T00:03:51.549Z,33.80
2018-01-15T00:06:21.307Z,29.87
2018-01-15T00:08:50.268Z,33.10
2018-01-15T00:11:20.020Z,29.03
2018-01-15T00:13:48.989Z,34.93
2018-01-15T00:16:18.757Z,32.70
2018-01-15T00:18:49.300Z,28.60
2018-01-15T00:21:18.290Z,31.00
2018-01-15T00:23:47.632Z,39.10
2018-01-15T00:26:16.584Z,40.37
2018-01-15T00:28:46.324Z,33.77
2018-01-15T00:31:15.261Z,38.40
2018-01-15T00:33:44.245Z,34.23
2018-01-15T00:36:13.190Z,47.90
2018-01-15T00:38:42.568Z,27.10
2018-01-15T00:41:11.515Z,32.03
2018-01-15T00:43:40.506Z,26.00
2018-01-15T00:46:09.535Z,21.60
2018-01-15T00:48:39.243Z,24.33
2018-01-15T00:51:08.975Z,22.63
2018-01-15T00:53:37.968Z,24.33
2018-01-15T00:56:07.770Z,24.60
2018-01-15T00:58:37.467Z,20.47
2018-01-15T01:01:07.217Z,20.80
2018-01-15T01:03:36.268Z,19.60
2018-01-15T01:06:05.218Z,20.80
2018-01-15T01:08:34.555Z,21.30
2018-01-15T01:11:03.562Z,19.93
2018-01-15T01:13:33.270Z,19.33
2018-01-15T01:16:03.008Z,18.77
2018-01-15T01:18:31.941Z,19.70
2018-01-15T01:21:01.306Z,25.43
2018-01-15T01:23:31.395Z,20.90
2018-01-15T01:26:00.346Z,17.83
2018-01-15T01:28:29.382Z,19.33
2018-01-15T01:30:58.735Z,22.40
2018-01-15T01:33:27.715Z,23.67
2018-01-15T01:35:56.768Z,16.87
2018-01-15T01:38:25.747Z,15.33
2018-01-15T01:40:55.575Z,18.10
2018-01-15T01:43:25.293Z,13.20
2018-01-15T01:45:54.269Z,21.53
2018-01-15T01:48:23.993Z,18.20
2018-01-15T01:50:53.743Z,21.20
2018-01-15T01:53:23.913Z,21.10
2018-01-15T01:55:54.369Z,18.10
2018-01-15T01:58:23.387Z,17.17
2018-01-15T02:00:52.365Z,17.57
2018-01-15T02:03:21.332Z,19.80
2018-01-15T02:05:50.297Z,16.97
2018-01-15T02:08:19.300Z,19.63
2018-01-15T02:10:48.634Z,18.70
2018-01-15T02:13:18.353Z,14.83
2018-01-15T02:15:47.814Z,16.67
2018-01-15T02:18:16.740Z,18.50
2018-01-15T02:20:46.451Z,13.80
2018-01-15T02:23:16.675Z,13.93
2018-01-15T02:25:45.644Z,14.57
2018-01-15T02:28:15.378Z,16.53
2018-01-15T02:30:44.335Z,16.50
2018-01-15T02:33:14.049Z,15.27
2018-01-15T02:35:43.016Z,14.20
2018-01-15T02:38:12.486Z,17.60
2018-01-15T02:40:41.456Z,15.93
2018-01-15T02:43:10.930Z,15.93
2018-01-15T02:45:39.906Z,14.50
2018-01-15T02:48:09.639Z,17.93
2018-01-15T02:50:39.352Z,16.50
2018-01-15T02:53:08.794Z,16.00
2018-01-15T02:55:38.979Z,14.27
2018-01-15T02:58:07.963Z,15.03
2018-01-15T03:00:37.678Z,16.47
2018-01-15T03:03:07.432Z,15.27
2018-01-15T03:05:37.156Z,12.80
2018-01-15T03:08:06.565Z,14.57
2018-01-15T03:10:35.537Z,14.10
2018-01-15T03:13:04.534Z,16.20
2018-01-15T03:15:34.267Z,13.93
2018-01-15T03:18:03.184Z,11.97
2018-01-15T03:20:32.984Z,11.70
2018-01-15T03:23:01.937Z,13.40
2018-01-15T03:25:30.869Z,12.90
2018-01-15T03:28:00.241Z,13.87
2018-01-15T03:30:30.690Z,15.17
2018-01-15T03:32:59.660Z,12.17
2018-01-15T03:35:30.131Z,13.07
2018-01-15T03:37:59.847Z,16.17
2018-01-15T03:40:29.578Z,12.87
2018-01-15T03:42:59.017Z,12.90
2018-01-15T03:45:28.278Z,11.80
2018-01-15T03:47:57.221Z,14.10
2018-01-15T03:50:26.189Z,12.97
2018-01-15T03:52:55.883Z,12.80
2018-01-15T03:55:25.679Z,12.13
2018-01-15T03:57:54.626Z,12.73
2018-01-15T04:00:24.385Z,13.23
2018-01-15T04:02:53.703Z,15.60
2018-01-15T04:05:22.697Z,15.73
2018-01-15T04:07:51.643Z,11.17
2018-01-15T04:10:20.658Z,13.07
2018-01-15T04:12:49.623Z,13.57
2018-01-15T04:15:18.971Z,13.90
2018-01-15T04:17:48.712Z,10.53
2018-01-15T04:20:18.430Z,13.80
2018-01-15T04:22:48.158Z,13.37
2018-01-15T04:25:17.875Z,15.23
2018-01-15T04:27:47.615Z,12.40
2018-01-15T04:30:16.566Z,12.73
2018-01-15T04:32:45.534Z,13.90
2018-01-15T04:35:14.871Z,11.70
2018-01-15T04:37:43.813Z,10.50
2018-01-15T04:40:12.785Z,11.17
2018-01-15T04:42:42.493Z,12.57
2018-01-15T04:45:11.467Z,14.13
2018-01-15T04:47:41.230Z,11.80
2018-01-15T04:50:10.229Z,16.93
2018-01-15T04:52:39.582Z,11.50
2018-01-15T04:55:08.543Z,14.67
2018-01-15T04:57:37.529Z,12.37
2018-01-15T05:00:06.465Z,11.23
2018-01-15T05:02:35.451Z,11.87
2018-01-15T05:05:04.816Z,12.60
2018-01-15T05:07:34.166Z,11.30
2018-01-15T05:10:03.123Z,14.57
2018-01-15T05:12:32.118Z,11.83
2018-01-15T05:15:01.106Z,11.67
2018-01-15T05:17:30.835Z,12.07
2018-01-15T05:20:00.614Z,9.13
2018-01-15T05:22:30.312Z,13.40
2018-01-15T05:24:59.715Z,12.63
2018-01-15T05:27:29.455Z,12.97
2018-01-15T05:29:58.386Z,13.30
2018-01-15T05:32:27.365Z,12.20
2018-01-15T05:34:57.109Z,14.70
2018-01-15T05:37:26.852Z,16.80
2018-01-15T05:39:55.802Z,12.83
2018-01-15T05:42:25.611Z,13.67
2018-01-15T05:44:54.614Z,13.13
2018-01-15T05:47:24.374Z,12.90
2018-01-15T05:49:53.701Z,15.37
2018-01-15T05:52:22.652Z,15.13
2018-01-15T05:54:51.726Z,12.50
2018-01-15T05:57:20.680Z,12.87
2018-01-15T05:59:50.407Z,14.03
2018-01-15T06:02:20.235Z,13.50
2018-01-15T06:04:49.628Z,13.77
2018-01-15T06:07:20.155Z,11.90
2018-01-15T06:09:49.083Z,13.30
2018-01-15T06:12:18.843Z,13.17
2018-01-15T06:14:49.350Z,14.03
2018-01-15T06:17:18.380Z,13.73
2018-01-15T06:19:48.189Z,12.03
2018-01-15T06:22:17.134Z,12.40
2018-01-15T06:24:46.124Z,14.77
2018-01-15T06:27:15.484Z,15.40
2018-01-15T06:29:44.834Z,15.23
2018-01-15T06:32:14.582Z,16.30
2018-01-15T06:34:44.282Z,14.43
2018-01-15T06:37:13.665Z,15.73
2018-01-15T06:39:42.644Z,13.50
2018-01-15T06:42:12.358Z,15.40
2018-01-15T06:44:41.318Z,12.80
2018-01-15T06:47:10.272Z,13.60
2018-01-15T06:49:39.262Z,16.07
2018-01-15T06:52:08.715Z,16.33
2018-01-15T06:54:38.421Z,17.77
2018-01-15T06:57:08.155Z,12.97
2018-01-15T06:59:37.856Z,13.20
2018-01-15T07:02:06.823Z,14.00
2018-01-15T07:04:36.545Z,14.97
2018-01-15T07:07:05.497Z,15.37
2018-01-15T07:09:35.282Z,14.97
2018-01-15T07:12:04.606Z,15.17
2018-01-15T07:14:34.467Z,15.37
2018-01-15T07:17:03.426Z,12.23
2018-01-15T07:19:32.929Z,15.80
2018-01-15T07:22:02.674Z,12.60
2018-01-15T07:24:31.665Z,12.87
2018-01-15T07:27:00.609Z,14.13
2018-01-15T07:29:30.368Z,15.50
2018-01-15T07:31:59.339Z,18.10
2018-01-15T07:34:28.732Z,15.43
2018-01-15T07:36:57.671Z,15.10
2018-01-15T07:39:27.399Z,20.87
2018-01-15T07:41:56.353Z,13.80
2018-01-15T07:44:25.493Z,12.33
2018-01-15T07:46:54.456Z,14.33
2018-01-15T07:49:24.187Z,14.67
2018-01-15T07:51:53.141Z,16.83
2018-01-15T07:54:23.011Z,14.17
2018-01-15T07:56:52.356Z,16.33
2018-01-15T07:59:21.295Z,15.23
2018-01-15T08:01:51.076Z,14.90
2018-01-15T08:04:20.412Z,16.13
2018-01-15T08:06:50.113Z,13.97
2018-01-15T08:09:19.830Z,14.57
2018-01-15T08:11:49.547Z,14.80
2018-01-15T08:14:19.406Z,13.40
2018-01-15T08:16:48.371Z,13.67
2018-01-15T08:19:17.322Z,13.87
2018-01-15T08:21:46.783Z,15.40
2018-01-15T08:24:16.511Z,16.27
2018-01-15T08:26:45.844Z,16.10
2018-01-15T08:29:15.668Z,14.03
2018-01-15T08:31:44.590Z,19.37
2018-01-15T08:34:13.560Z,15.97
2018-01-15T08:36:42.961Z,15.50
2018-01-15T08:52:05.130Z,17.23
2018-01-15T08:54:34.463Z,17.20
2018-01-15T08:57:04.170Z,14.70
2018-01-15T08:59:33.562Z,19.43
2018-01-15T09:02:02.905Z,16.63
2018-01-15T09:04:32.337Z,15.67
2018-01-15T09:07:01.686Z,20.70
2018-01-15T09:09:31.420Z,21.67
2018-01-15T09:12:00.790Z,24.67
2018-01-15T09:14:29.710Z,24.90
2018-01-15T09:16:59.475Z,21.97
2018-01-15T09:19:28.588Z,24.37
2018-01-15T09:21:57.556Z,19.30
2018-01-15T09:24:27.672Z,18.97
2018-01-15T09:26:56.625Z,22.60
2018-01-15T09:29:25.589Z,16.70
2018-01-15T09:31:54.645Z,16.20
2018-01-15T09:34:23.595Z,19.53
2018-01-15T09:36:52.568Z,16.40
2018-01-15T09:39:21.529Z,16.17
2018-01-15T09:41:50.566Z,14.43
2018-01-15T09:44:19.523Z,14.60
2018-01-15T09:46:49.272Z,18.10
2018-01-15T09:49:18.648Z,18.83
2018-01-15T09:51:48.458Z,18.20
2018-01-15T09:54:17.782Z,17.10
2018-01-15T09:56:46.746Z,16.13
2018-01-15T09:59:16.438Z,16.43
2018-01-15T10:01:45.413Z,15.20
2018-01-15T10:04:14.860Z,17.00
2018-01-15T10:06:44.608Z,16.67
2018-01-15T10:09:13.550Z,16.70
2018-01-15T10:11:43.275Z,17.17
2018-01-15T10:14:12.616Z,16.83
2018-01-15T10:16:41.694Z,17.50
2018-01-15T10:19:10.636Z,16.43
2018-01-15T10:21:39.579Z,16.57
2018-01-15T10:24:09.324Z,14.73
2018-01-15T10:26:39.027Z,17.67
2018-01-15T10:29:08.775Z,17.67
2018-01-15T10:31:38.484Z,16.33
2018-01-15T10:34:08.219Z,16.40
2018-01-15T10:36:37.604Z,16.60
2018-01-15T10:39:06.542Z,15.03
2018-01-15T10:41:35.612Z,16.00
2018-01-15T10:44:05.685Z,15.47
2018-01-15T10:46:34.624Z,18.27
2018-01-15T10:49:04.773Z,17.07
2018-01-15T10:51:34.538Z,16.20
2018-01-15T10:54:04.257Z,19.53
2018-01-15T10:56:34.371Z,17.50
2018-01-15T10:59:03.334Z,19.23
2018-01-15T11:01:32.696Z,20.00
2018-01-15T11:04:01.666Z,17.90
2018-01-15T11:06:30.620Z,21.00
2018-01-15T11:09:00.372Z,15.90
2018-01-15T11:11:30.469Z,18.80
2018-01-15T11:13:59.400Z,16.07
2018-01-15T11:16:28.432Z,15.83
2018-01-15T11:18:57.357Z,16.07
2018-01-15T11:21:27.456Z,16.93
2018-01-15T11:23:56.819Z,19.00
2018-01-15T11:26:26.671Z,18.83
2018-01-15T11:28:56.018Z,19.70
2018-01-15T11:31:25.868Z,18.67
2018-01-15T11:33:55.556Z,20.57
2018-01-15T11:36:24.506Z,19.53
2018-01-15T11:38:53.481Z,20.70
2018-01-15T11:41:22.857Z,18.17
2018-01-15T11:43:52.632Z,19.83
2018-01-15T11:46:21.618Z,20.12
2018-01-15T11:48:50.574Z,18.87
2018-01-15T11:51:19.536Z,21.70
2018-01-15T11:53:48.532Z,18.00
2018-01-15T11:56:17.483Z,18.97
2018-01-15T11:58:46.525Z,19.53
2018-01-15T12:01:15.478Z,15.67
2018-01-15T12:03:44.920Z,20.97
2018-01-15T12:06:14.258Z,23.47
2018-01-15T12:08:43.621Z,21.37
2018-01-15T12:11:12.625Z,21.33
2018-01-15T12:13:41.658Z,15.50
2018-01-15T12:16:11.425Z,17.77
2018-01-15T12:18:40.504Z,17.23
2018-01-15T12:21:10.262Z,15.20
2018-01-15T12:23:39.322Z,16.50
2018-01-15T12:26:09.063Z,17.87
2018-01-15T12:28:37.994Z,14.07
2018-01-15T12:31:08.531Z,13.43
2018-01-15T12:33:38.265Z,12.60
2018-01-15T12:36:08.034Z,15.90
2018-01-15T12:38:37.733Z,16.57
2018-01-15T12:41:06.716Z,14.53
2018-01-15T12:43:36.455Z,16.90
2018-01-15T12:46:05.383Z,12.30
2018-01-15T12:48:34.356Z,14.53
2018-01-15T12:51:03.710Z,13.77
2018-01-15T12:53:32.690Z,15.73
2018-01-15T12:56:02.542Z,12.50
2018-01-15T12:58:31.517Z,16.70
2018-01-15T13:01:00.452Z,18.87
2018-01-15T13:03:30.155Z,14.63
2018-01-15T13:06:05.727Z,13.90
2018-01-15T13:22:07.168Z,14.27
2018-01-15T13:24:36.500Z,11.47
2018-01-15T13:27:05.464Z,19.37
2018-01-15T13:29:34.845Z,13.63
2018-01-15T13:32:04.198Z,17.63
2018-01-15T13:34:33.569Z,16.03
2018-01-15T13:37:02.532Z,10.60
2018-01-15T13:39:32.240Z,15.60
2018-01-15T13:42:01.618Z,13.67
2018-01-15T13:44:30.560Z,9.80
2018-01-15T13:46:59.911Z,13.50
2018-01-15T13:49:28.864Z,14.00
2018-01-15T13:51:58.611Z,13.03
2018-01-15T13:54:27.563Z,16.43
2018-01-15T13:56:56.537Z,13.10
2018-01-15T13:59:25.494Z,17.30
2018-01-15T14:01:55.209Z,13.53
2018-01-15T14:04:24.629Z,12.53
2018-01-15T14:06:54.337Z,13.23
2018-01-15T14:09:23.702Z,15.17
2018-01-15T14:11:52.672Z,11.90
2018-01-15T14:14:22.441Z,9.83
2018-01-15T14:16:51.796Z,12.50
2018-01-15T14:19:20.744Z,10.83
2018-01-15T14:21:50.098Z,12.10
2018-01-15T14:24:19.063Z,9.13
2018-01-15T14:26:48.814Z,11.80
2018-01-15T14:29:17.754Z,9.53
2018-01-15T14:31:46.697Z,10.60
2018-01-15T14:34:15.673Z,13.00
2018-01-15T14:36:44.641Z,10.80
2018-01-15T14:39:13.690Z,14.87
2018-01-15T14:41:43.395Z,13.47
2018-01-15T14:44:12.355Z,11.97
2018-01-15T14:46:42.469Z,17.20
2018-01-15T14:49:11.464Z,10.70
2018-01-15T14:51:40.496Z,12.10
2018-01-15T14:54:10.951Z,11.57
2018-01-15T14:56:39.924Z,13.13
2018-01-15T14:59:09.620Z,10.90
2018-01-15T15:01:39.343Z,14.27
2018-01-15T15:04:09.058Z,16.63
2018-01-15T15:06:38.395Z,15.73
2018-01-15T15:09:07.371Z,13.80
2018-01-15T15:11:36.716Z,13.43
2018-01-15T15:14:05.679Z,13.73
2018-01-15T15:16:34.642Z,14.00
2018-01-15T15:19:03.589Z,14.80
2018-01-15T15:21:33.329Z,14.97
2018-01-15T15:24:02.785Z,15.00
2018-01-15T15:26:31.732Z,15.23
2018-01-15T15:29:01.133Z,15.87
2018-01-15T15:31:30.491Z,14.20
2018-01-15T15:33:59.444Z,15.83
2018-01-15T15:36:28.401Z,11.70
2018-01-15T15:38:57.394Z,14.67
2018-01-15T15:41:26.726Z,13.03
2018-01-15T15:43:55.676Z,11.80
2018-01-15T15:46:24.696Z,12.90
2018-01-15T15:48:54.450Z,13.87
2018-01-15T15:51:23.905Z,14.50
2018-01-15T15:53:53.237Z,12.50
2018-01-15T15:56:22.656Z,14.20
2018-01-15T15:58:51.650Z,11.80
2018-01-15T16:01:21.509Z,13.83
2018-01-15T16:03:50.866Z,11.90
2018-01-15T16:06:20.599Z,15.27
2018-01-15T16:08:49.538Z,12.30
2018-01-15T16:11:19.008Z,14.07
2018-01-15T16:13:48.037Z,12.10
2018-01-15T16:16:17.010Z,15.43
2018-01-15T16:18:45.977Z,15.67
2018-01-15T16:21:15.714Z,14.43
2018-01-15T16:23:45.449Z,17.10
2018-01-15T16:26:15.526Z,15.03
2018-01-15T16:28:44.893Z,17.50
2018-01-15T16:31:13.840Z,15.67
2018-01-15T16:33:42.794Z,13.00
2018-01-15T16:36:15.257Z,13.23
2018-01-15T16:40:37.860Z,15.60
2018-01-15T16:43:09.692Z,14.40
2018-01-15T16:45:38.670Z,15.60
2018-01-15T16:48:07.637Z,14.30
2018-01-15T16:50:37.350Z,16.03
2018-01-15T16:53:06.332Z,16.23
2018-01-15T16:55:36.150Z,16.40
2018-01-15T16:58:05.509Z,14.60
2018-01-15T17:00:34.586Z,15.10
2018-01-15T17:03:04.231Z,17.83
2018-01-15T17:05:33.586Z,14.73
2018-01-15T17:08:02.573Z,16.40
2018-01-15T17:10:32.280Z,14.73
2018-01-15T17:13:01.622Z,14.80
2018-01-15T17:15:31.008Z,14.20
2018-01-15T17:18:00.715Z,13.57
2018-01-15T17:20:30.101Z,14.43
2018-01-15T17:22:59.861Z,19.23
2018-01-15T17:25:29.281Z,15.50
2018-01-15T17:27:58.637Z,14.83
2018-01-15T17:30:27.609Z,18.70
2018-01-15T17:32:57.016Z,17.47
2018-01-15T17:35:26.216Z,13.10
2018-01-15T17:37:55.947Z,16.93
2018-01-15T17:40:24.964Z,15.83
2018-01-15T17:42:53.909Z,13.80
2018-01-15T17:45:23.652Z,12.50
2018-01-15T17:47:52.714Z,13.17
2018-01-15T17:50:22.432Z,16.63
2018-01-15T17:52:52.167Z,11.83
2018-01-15T17:55:21.108Z,15.27
2018-01-15T17:57:51.607Z,16.10
2018-01-15T18:00:20.600Z,12.97
2018-01-15T18:02:49.542Z,13.77
2018-01-15T18:05:18.917Z,17.00
2018-01-15T18:07:47.946Z,13.70
2018-01-15T18:10:17.331Z,12.10
2018-01-15T18:12:46.334Z,18.33
2018-01-15T18:15:15.741Z,14.93
2018-01-15T18:17:44.746Z,15.27
2018-01-15T18:20:13.814Z,11.27
2018-01-15T18:22:42.759Z,14.80
2018-01-15T18:25:12.618Z,13.20
2018-01-15T18:27:41.543Z,15.07
2018-01-15T18:30:10.505Z,13.10
2018-01-15T18:32:40.298Z,15.43
2018-01-15T18:35:09.668Z,16.63
2018-01-15T18:37:39.450Z,18.93
2018-01-15T18:40:08.805Z,15.37
2018-01-15T18:42:37.831Z,21.50
2018-01-15T18:45:07.629Z,17.10
2018-01-15T18:47:36.634Z,15.60
2018-01-15T18:50:07.371Z,14.17
2018-01-15T18:52:36.744Z,13.40
2018-01-15T18:55:22.758Z,14.47
2018-01-15T18:57:52.150Z,16.40
2018-01-15T19:00:21.882Z,15.93
2018-01-15T19:02:51.676Z,11.70
2018-01-15T19:05:35.998Z,12.77
2018-01-15T19:08:05.462Z,12.63
2018-01-15T19:10:34.857Z,9.97
2018-01-15T19:13:03.855Z,11.70
2018-01-15T19:15:32.831Z,12.43
2018-01-15T19:18:02.590Z,11.80
2018-01-15T19:20:31.631Z,10.43
2018-01-15T19:23:01.400Z,10.93
2018-01-15T19:25:31.150Z,10.40
2018-01-15T19:28:01.834Z,7.97
2018-01-15T19:30:30.845Z,10.87
2018-01-15T19:33:00.629Z,11.40
2018-01-15T19:35:46.841Z,8.20
2018-01-15T19:38:17.368Z,10.30
2018-01-15T19:40:46.757Z,8.50
2018-01-15T19:43:22.672Z,9.83
2018-01-15T19:45:58.099Z,7.90
2018-01-15T19:48:33.085Z,9.37
2018-01-15T19:51:08.099Z,13.33
2018-01-15T20:07:15.160Z,7.83
2018-01-15T20:09:50.291Z,6.90
2018-01-15T20:12:20.311Z,6.57
2018-01-15T20:14:49.765Z,7.87
2018-01-15T20:17:19.569Z,8.00
2018-01-15T20:19:49.136Z,7.37
2018-01-15T20:22:18.940Z,7.70
2018-01-15T20:24:49.522Z,9.30
2018-01-15T20:27:18.561Z,8.33
2018-01-15T20:29:48.313Z,8.40
2018-01-15T20:32:17.758Z,7.93
2018-01-15T20:34:47.596Z,6.93
2018-01-15T20:37:17.405Z,9.70
2018-01-15T20:39:46.475Z,6.37
2018-01-15T20:42:15.931Z,8.70
2018-01-15T20:44:45.737Z,7.13
2018-01-15T20:47:16.400Z,6.80
2018-01-15T20:49:46.748Z,8.73
2018-01-15T20:52:16.003Z,5.83
2018-01-15T20:54:45.421Z,5.60
2018-01-15T20:57:14.409Z,6.33
2018-01-15T20:59:44.353Z,5.60
2018-01-15T21:02:15.016Z,5.50
2018-01-15T21:04:44.927Z,5.43
2018-01-15T21:07:14.402Z,5.10
2018-01-15T21:09:43.793Z,6.23
2018-01-15T21:12:13.544Z,5.77
2018-01-15T21:14:43.448Z,5.47
2018-01-15T21:17:12.831Z,6.93
2018-01-15T21:19:42.761Z,6.27
2018-01-15T21:22:11.816Z,5.90
2018-01-15T21:24:41.632Z,7.10
2018-01-15T21:27:11.658Z,8.00
2018-01-15T21:29:41.484Z,6.80
2018-01-15T21:32:10.442Z,8.87
2018-01-15T21:34:39.820Z,9.50
2018-01-15T21:37:09.585Z,9.40
2018-01-15T21:39:39.559Z,8.70
2018-01-15T21:42:09.326Z,9.70
2018-01-15T21:44:38.706Z,9.50
2018-01-15T21:47:07.686Z,10.57
2018-01-15T21:49:36.848Z,12.30
2018-01-15T21:52:06.611Z,10.60
2018-01-15T21:54:36.422Z,10.70
2018-01-15T21:57:05.382Z,8.00
2018-01-15T21:59:34.726Z,10.63
2018-01-15T22:02:04.493Z,10.97
2018-01-15T22:04:34.204Z,10.20
2018-01-15T22:07:03.229Z,10.33
2018-01-15T22:09:32.612Z,9.43
2018-01-15T22:12:01.566Z,10.63
2018-01-15T22:14:30.586Z,10.20
2018-01-15T22:17:00.179Z,11.37
2018-01-15T22:19:29.335Z,11.57
2018-01-15T22:21:59.058Z,12.43
2018-01-15T22:24:28.942Z,11.53
2018-01-15T22:26:57.892Z,9.87
2018-01-15T22:29:27.659Z,11.40
2018-01-15T22:31:56.657Z,12.17
2018-01-15T22:34:26.446Z,11.13
2018-01-15T22:36:55.440Z,11.90
2018-01-15T22:39:24.395Z,12.40
2018-01-15T22:41:54.130Z,10.20
2018-01-15T22:44:23.847Z,14.00
2018-01-15T22:46:53.605Z,12.00
2018-01-15T22:49:22.993Z,11.97
2018-01-15T22:51:52.743Z,11.10
2018-01-15T22:54:22.142Z,11.60
2018-01-15T22:56:51.858Z,11.47
2018-01-15T22:59:20.850Z,10.13
2018-01-15T23:01:51.303Z,9.47
2018-01-15T23:04:20.677Z,9.70
2018-01-15T23:06:49.649Z,11.13
2018-01-15T23:09:18.629Z,12.03
2018-01-15T23:11:47.578Z,10.37
2018-01-15T23:14:17.318Z,10.47
2018-01-15T23:16:46.691Z,10.27
2018-01-15T23:19:15.647Z,9.27
2018-01-15T23:21:44.664Z,10.60
2018-01-15T23:24:14.415Z,8.43
2018-01-15T23:26:43.803Z,10.50
2018-01-15T23:29:13.283Z,10.20
2018-01-15T23:31:42.662Z,10.67
2018-01-15T23:34:11.617Z,10.70
2018-01-15T23:36:40.584Z,10.30
2018-01-15T23:39:10.347Z,11.43
2018-01-15T23:41:39.301Z,11.60
2018-01-15T23:44:08.718Z,12.33
2018-01-15T23:46:37.732Z,15.00
2018-01-15T23:49:07.128Z,16.37
2018-01-15T23:51:37.290Z,10.53
2018-01-15T23:54:06.616Z,14.50
2018-01-15T23:56:35.561Z,12.30
2018-01-15T23:59:04.561Z,11.00
